createdAt,value
2017-12-29T00:00:21.722Z,4.92
2017-12-29T00:01:21.185Z,5.04
2017-12-29T00:02:21.741Z,4.94
2017-12-29T00:03:21.475Z,4.89
2017-12-29T00:04:21.544Z,4.94
2017-12-29T00:05:21.499Z,4.89
2017-12-29T00:06:21.525Z,4.96
2017-12-29T00:07:21.521Z,5
2017-12-29T00:08:21.528Z,4.97
2017-12-29T00:09:21.810Z,4.97
2017-12-29T00:10:21.274Z,5.02
2017-12-29T00:11:21.836Z,5.04
2017-12-29T00:12:21.568Z,5.04
2017-12-29T00:13:21.584Z,4.89
2017-12-29T00:14:21.866Z,4.97
2017-12-29T00:15:21.602Z,4.93
2017-12-29T00:16:21.337Z,4.93
2017-12-29T00:17:21.622Z,4.97
2017-12-29T00:18:21.644Z,4.84
2017-12-29T00:19:21.967Z,4.94
2017-12-29T00:20:21.379Z,4.94
2017-12-29T00:21:21.669Z,4.92
2017-12-29T00:22:21.671Z,4.96
2017-12-29T00:23:21.958Z,4.9
2017-12-29T00:24:21.692Z,4.92
2017-12-29T00:25:21.724Z,4.8
2017-12-29T00:26:21.438Z,4.82
2017-12-29T00:27:21.995Z,4.82
2017-12-29T00:28:22.018Z,4.89
2017-12-29T00:29:22.015Z,4.78
2017-12-29T00:30:21.752Z,4.94
2017-12-29T00:31:22.038Z,4.82
2017-12-29T00:32:21.774Z,4.84
2017-12-29T00:33:21.504Z,4.82
2017-12-29T00:34:21.795Z,4.82
2017-12-29T00:35:21.802Z,4.84
2017-12-29T00:36:21.817Z,4.8
2017-12-29T00:37:21.549Z,4.86
2017-12-29T00:38:21.558Z,4.82
2017-12-29T00:39:21.840Z,4.77
2017-12-29T00:40:22.131Z,4.82
2017-12-29T00:41:22.137Z,4.86
2017-12-29T00:42:21.600Z,4.86
2017-12-29T00:43:21.610Z,4.84
2017-12-29T00:44:21.895Z,4.86
2017-12-29T00:45:21.905Z,4.86
2017-12-29T00:46:22.198Z,4.8
2017-12-29T00:47:21.925Z,4.78
2017-12-29T00:48:22.036Z,4.75
2017-12-29T00:49:21.667Z,4.73
2017-12-29T00:50:22.228Z,4.75
2017-12-29T00:51:22.238Z,4.71
2017-12-29T00:52:22.246Z,4.78
2017-12-29T00:53:21.710Z,4.68
2017-12-29T00:54:22.044Z,4.63
2017-12-29T00:55:22.279Z,4.78
2017-12-29T00:56:22.289Z,4.77
2017-12-29T00:57:22.028Z,4.74
2017-12-29T00:58:22.315Z,4.78
2017-12-29T00:59:22.320Z,4.75
2017-12-29T01:00:22.338Z,4.82
2017-12-29T01:01:22.344Z,4.77
2017-12-29T01:02:22.075Z,4.77
2017-12-29T01:03:22.362Z,4.8
2017-12-29T01:04:21.820Z,4.84
2017-12-29T01:05:22.385Z,4.84
2017-12-29T01:06:22.115Z,4.77
2017-12-29T01:07:22.129Z,4.78
2017-12-29T01:08:21.862Z,4.8
2017-12-29T01:09:21.871Z,4.82
2017-12-29T01:10:22.155Z,4.86
2017-12-29T01:11:22.441Z,4.84
2017-12-29T01:12:21.905Z,4.89
2017-12-29T01:13:22.469Z,4.86
2017-12-29T01:14:22.199Z,4.8
2017-12-29T01:15:22.480Z,4.86
2017-12-29T01:16:22.217Z,4.86
2017-12-29T01:17:22.225Z,4.82
2017-12-29T01:18:22.235Z,4.86
2017-12-29T01:19:21.975Z,4.86
2017-12-29T01:20:22.257Z,4.8
2017-12-29T01:21:22.541Z,4.87
2017-12-29T01:22:22.551Z,4.8
2017-12-29T01:23:22.329Z,4.82
2017-12-29T01:24:22.570Z,4.84
2017-12-29T01:25:22.583Z,4.84
2017-12-29T01:26:22.317Z,4.87
2017-12-29T01:27:22.598Z,4.84
2017-12-29T01:28:22.062Z,4.78
2017-12-29T01:29:22.346Z,4.87
2017-12-29T01:30:22.360Z,4.82
2017-12-29T01:31:22.370Z,4.82
2017-12-29T01:32:22.102Z,4.84
2017-12-29T01:33:22.385Z,4.87
2017-12-29T01:34:22.396Z,4.87
2017-12-29T01:35:22.407Z,4.92
2017-12-29T01:36:22.141Z,4.86
2017-12-29T01:37:22.152Z,4.92
2017-12-29T01:38:22.435Z,4.97
2017-12-29T01:39:22.172Z,5.04
2017-12-29T01:40:22.457Z,4.99
2017-12-29T01:41:22.463Z,4.99
2017-12-29T01:42:22.480Z,5.02
2017-12-29T01:43:22.484Z,4.97
2017-12-29T01:44:22.498Z,5.04
2017-12-29T01:45:22.780Z,4.96
2017-12-29T01:46:22.790Z,5.02
2017-12-29T01:47:22.862Z,5.05
2017-12-29T01:48:22.815Z,5.07
2017-12-29T01:49:22.544Z,5.08
2017-12-29T01:50:22.831Z,5.1
2017-12-29T01:51:22.837Z,5.08
2017-12-29T01:52:22.582Z,5.08
2017-12-29T01:53:22.606Z,5.14
2017-12-29T01:54:22.600Z,5.14
2017-12-29T01:55:22.881Z,5.08
2017-12-29T01:56:22.614Z,5.15
2017-12-29T01:57:22.629Z,5.11
2017-12-29T01:58:22.637Z,5.1
2017-12-29T01:59:22.646Z,5.12
2017-12-29T02:00:22.384Z,5.11
2017-12-29T02:01:22.668Z,5.12
2017-12-29T02:02:22.407Z,5.14
2017-12-29T02:03:22.418Z,5.1
2017-12-29T02:04:22.697Z,5.25
2017-12-29T02:05:22.431Z,5.18
2017-12-29T02:06:22.447Z,5.18
2017-12-29T02:07:22.728Z,5.21
2017-12-29T02:08:22.740Z,5.21
2017-12-29T02:09:22.471Z,5.18
2017-12-29T02:10:22.757Z,5.21
2017-12-29T02:11:22.493Z,5.25
2017-12-29T02:12:22.777Z,5.17
2017-12-29T02:13:22.789Z,5.21
2017-12-29T02:14:22.800Z,5.17
2017-12-29T02:15:22.807Z,5.26
2017-12-29T02:16:22.862Z,5.17
2017-12-29T02:17:23.107Z,5.3
2017-12-29T02:18:22.563Z,5.23
2017-12-29T02:19:22.576Z,5.23
2017-12-29T02:20:22.858Z,5.25
2017-12-29T02:21:23.193Z,5.2
2017-12-29T02:22:22.885Z,5.26
2017-12-29T02:23:22.614Z,5.21
2017-12-29T02:24:23.187Z,5.26
2017-12-29T02:25:23.185Z,5.26
2017-12-29T02:26:22.975Z,5.29
2017-12-29T02:27:22.932Z,5.29
2017-12-29T02:28:23.219Z,5.35
2017-12-29T02:29:23.227Z,5.28
2017-12-29T02:30:22.961Z,5.32
2017-12-29T02:31:23.245Z,5.29
2017-12-29T02:32:22.986Z,5.35
2017-12-29T02:33:22.997Z,5.25
2017-12-29T02:34:23.293Z,5.3
2017-12-29T02:35:22.750Z,5.32
2017-12-29T02:36:22.749Z,5.32
2017-12-29T02:37:23.039Z,5.29
2017-12-29T02:38:23.044Z,5.28
2017-12-29T02:39:23.059Z,5.2
2017-12-29T02:40:23.067Z,5.29
2017-12-29T02:41:23.076Z,5.23
2017-12-29T02:42:23.365Z,5.28
2017-12-29T02:43:23.097Z,5.23
2017-12-29T02:44:23.116Z,5.26
2017-12-29T02:45:23.392Z,5.21
2017-12-29T02:46:23.412Z,5.26
2017-12-29T02:47:23.141Z,5.23
2017-12-29T02:48:23.147Z,5.23
2017-12-29T02:49:22.884Z,5.23
2017-12-29T02:50:23.443Z,5.29
2017-12-29T02:51:23.465Z,5.21
2017-12-29T02:52:23.474Z,5.21
2017-12-29T02:53:23.478Z,5.33
2017-12-29T02:54:23.205Z,5.23
2017-12-29T02:55:23.512Z,5.17
2017-12-29T02:56:23.510Z,5.18
2017-12-29T02:57:23.241Z,5.23
2017-12-29T02:58:23.253Z,5.26
2017-12-29T02:59:23.262Z,5.21
2017-12-29T03:00:23.271Z,5.2
2017-12-29T03:01:23.286Z,5.2
2017-12-29T03:02:23.017Z,5.21
2017-12-29T03:03:23.300Z,5.2
2017-12-29T03:04:23.583Z,5.21
2017-12-29T03:05:23.051Z,5.2
2017-12-29T03:06:23.330Z,5.2
2017-12-29T03:07:23.342Z,5.21
2017-12-29T03:08:23.628Z,5.21
2017-12-29T03:09:23.645Z,5.17
2017-12-29T03:10:23.377Z,5.21
2017-12-29T03:11:23.119Z,5.28
2017-12-29T03:12:23.669Z,5.18
2017-12-29T03:13:23.405Z,5.14
2017-12-29T03:14:23.192Z,5.15
2017-12-29T03:15:23.425Z,5.12
2017-12-29T03:16:23.438Z,5.14
2017-12-29T03:17:23.171Z,5.21
2017-12-29T03:18:23.737Z,5.17
2017-12-29T03:19:23.469Z,5.18
2017-12-29T03:20:23.479Z,5.17
2017-12-29T03:21:23.769Z,5.2
2017-12-29T03:22:23.500Z,5.2
2017-12-29T03:23:23.513Z,5.21
2017-12-29T03:24:23.517Z,5.15
2017-12-29T03:25:23.803Z,5.2
2017-12-29T03:26:23.545Z,5.21
2017-12-29T03:27:23.550Z,5.2
2017-12-29T03:28:23.561Z,5.21
2017-12-29T03:29:23.569Z,5.18
2017-12-29T03:30:23.862Z,5.2
2017-12-29T03:31:23.870Z,5.18
2017-12-29T03:32:23.876Z,5.18
2017-12-29T03:33:23.610Z,5.17
2017-12-29T03:34:23.895Z,5.1
2017-12-29T03:35:23.960Z,5.12
2017-12-29T03:36:23.364Z,5.12
2017-12-29T03:37:23.379Z,5.1
2017-12-29T03:38:23.666Z,5.07
2017-12-29T03:39:23.673Z,5.07
2017-12-29T03:40:23.686Z,5.11
2017-12-29T03:41:23.419Z,5.02
2017-12-29T03:42:23.981Z,5.07
2017-12-29T03:43:23.716Z,5.07
2017-12-29T03:44:23.450Z,5.11
2017-12-29T03:45:23.737Z,5.1
2017-12-29T03:46:24.020Z,5.08
2017-12-29T03:47:23.755Z,5
2017-12-29T03:48:23.764Z,5.07
2017-12-29T03:49:23.777Z,5.05
2017-12-29T03:50:23.838Z,5.1
2017-12-29T03:51:24.071Z,5.07
2017-12-29T03:52:23.807Z,5.02
2017-12-29T03:53:24.089Z,5.05
2017-12-29T03:54:23.555Z,4.99
2017-12-29T03:55:24.165Z,5.04
2017-12-29T03:56:23.882Z,5.07
2017-12-29T03:57:23.859Z,5.08
2017-12-29T03:58:24.142Z,5.07
2017-12-29T03:59:23.880Z,5.02
2017-12-29T04:00:24.219Z,5.05
2017-12-29T04:01:23.625Z,5.08
2017-12-29T04:02:23.908Z,5.07
2017-12-29T04:03:24.202Z,5.02
2017-12-29T04:04:23.655Z,5
2017-12-29T04:05:23.990Z,5.1
2017-12-29T04:06:24.229Z,5.02
2017-12-29T04:07:24.243Z,5.02
2017-12-29T04:08:24.242Z,5
2017-12-29T04:09:23.980Z,5
2017-12-29T04:10:24.044Z,5.1
2017-12-29T04:11:23.728Z,4.99
2017-12-29T04:12:24.013Z,5.08
2017-12-29T04:13:24.296Z,5.07
2017-12-29T04:14:24.032Z,5.08
2017-12-29T04:15:24.317Z,5.08
2017-12-29T04:16:24.332Z,5.11
2017-12-29T04:17:24.338Z,5.14
2017-12-29T04:18:24.069Z,5.07
2017-12-29T04:19:24.355Z,5.11
2017-12-29T04:20:24.371Z,5.11
2017-12-29T04:21:24.104Z,5.05
2017-12-29T04:22:23.838Z,5.08
2017-12-29T04:23:24.395Z,5.08
2017-12-29T04:24:24.134Z,5.08
2017-12-29T04:25:23.870Z,5.15
2017-12-29T04:26:24.426Z,5.1
2017-12-29T04:27:24.442Z,5.12
2017-12-29T04:28:24.451Z,5.12
2017-12-29T04:29:24.460Z,5.12
2017-12-29T04:30:24.196Z,5.18
2017-12-29T04:31:24.479Z,5.14
2017-12-29T04:32:24.218Z,5.15
2017-12-29T04:33:24.502Z,5.17
2017-12-29T04:34:24.505Z,5.17
2017-12-29T04:35:24.245Z,5.2
2017-12-29T04:36:24.261Z,5.17
2017-12-29T04:37:24.264Z,5.18
2017-12-29T04:38:24.565Z,5.18
2017-12-29T04:39:24.580Z,5.15
2017-12-29T04:40:24.076Z,5.21
2017-12-29T04:41:24.587Z,5.21
2017-12-29T04:42:24.318Z,5.2
2017-12-29T04:43:24.328Z,5.25
2017-12-29T04:44:24.610Z,5.21
2017-12-29T04:45:24.351Z,5.21
2017-12-29T04:46:24.090Z,5.23
2017-12-29T04:47:24.106Z,5.18
2017-12-29T04:48:24.383Z,5.25
2017-12-29T04:49:24.397Z,5.25
2017-12-29T04:50:24.727Z,5.23
2017-12-29T04:51:24.682Z,5.25
2017-12-29T04:52:24.145Z,5.21
2017-12-29T04:53:24.431Z,5.33
2017-12-29T04:54:24.442Z,5.28
2017-12-29T04:55:24.455Z,5.23
2017-12-29T04:56:24.741Z,5.17
2017-12-29T04:57:24.473Z,5.23
2017-12-29T04:58:24.766Z,5.23
2017-12-29T04:59:24.515Z,5.29
2017-12-29T05:00:24.776Z,5.21
2017-12-29T05:01:24.787Z,5.23
2017-12-29T05:02:24.523Z,5.26
2017-12-29T05:03:24.809Z,5.25
2017-12-29T05:04:24.546Z,5.25
2017-12-29T05:05:24.879Z,5.25
2017-12-29T05:06:24.563Z,5.21
2017-12-29T05:07:24.572Z,5.2
2017-12-29T05:08:24.861Z,5.21
2017-12-29T05:09:24.319Z,5.28
2017-12-29T05:10:24.704Z,5.25
2017-12-29T05:11:24.890Z,5.23
2017-12-29T05:12:24.903Z,5.2
2017-12-29T05:13:24.636Z,5.17
2017-12-29T05:14:24.922Z,5.18
2017-12-29T05:15:24.932Z,5.26
2017-12-29T05:16:24.946Z,5.32
2017-12-29T05:17:24.405Z,5.2
2017-12-29T05:18:24.688Z,5.29
2017-12-29T05:19:24.999Z,5.2
2017-12-29T05:20:24.710Z,5.2
2017-12-29T05:21:25.010Z,5.25
2017-12-29T05:22:24.732Z,5.2
2017-12-29T05:23:24.736Z,5.23
2017-12-29T05:24:24.762Z,5.21
2017-12-29T05:25:25.087Z,5.18
2017-12-29T05:26:24.773Z,5.25
2017-12-29T05:27:25.063Z,5.26
2017-12-29T05:28:24.792Z,5.32
2017-12-29T05:29:24.800Z,5.28
2017-12-29T05:30:25.164Z,5.32
2017-12-29T05:31:25.284Z,5.28
2017-12-29T05:32:25.109Z,5.33
2017-12-29T05:33:25.119Z,5.35
2017-12-29T05:34:25.129Z,5.36
2017-12-29T05:35:25.142Z,5.39
2017-12-29T05:36:24.876Z,5.25
2017-12-29T05:37:24.887Z,5.36
2017-12-29T05:38:24.913Z,5.35
2017-12-29T05:39:25.181Z,5.29
2017-12-29T05:40:25.188Z,5.32
2017-12-29T05:41:24.924Z,5.32
2017-12-29T05:42:24.936Z,5.3
2017-12-29T05:43:25.218Z,5.26
2017-12-29T05:44:25.226Z,5.23
2017-12-29T05:45:25.247Z,5.17
2017-12-29T05:46:24.983Z,5.25
2017-12-29T05:47:25.267Z,5.18
2017-12-29T05:48:25.270Z,5.2
2017-12-29T05:49:25.287Z,5.17
2017-12-29T05:50:25.331Z,5.26
2017-12-29T05:51:25.305Z,5.21
2017-12-29T05:52:25.324Z,5.3
2017-12-29T05:53:25.050Z,5.17
2017-12-29T05:54:25.060Z,5.25
2017-12-29T05:55:25.071Z,5.23
2017-12-29T05:56:25.354Z,5.17
2017-12-29T05:57:25.093Z,5.2
2017-12-29T05:58:24.826Z,5.2
2017-12-29T05:59:25.225Z,5.2
2017-12-29T06:00:24.891Z,5.23
2017-12-29T06:01:25.129Z,5.15
2017-12-29T06:02:25.145Z,5.17
2017-12-29T06:03:25.432Z,5.17
2017-12-29T06:04:25.163Z,5.28
2017-12-29T06:05:25.569Z,5.26
2017-12-29T06:06:25.293Z,5.25
2017-12-29T06:07:25.154Z,5.25
2017-12-29T06:08:25.479Z,5.29
2017-12-29T06:09:25.214Z,5.28
2017-12-29T06:10:25.065Z,5.26
2017-12-29T06:11:25.284Z,5.25
2017-12-29T06:12:25.517Z,5.17
2017-12-29T06:13:25.253Z,5.21
2017-12-29T06:14:25.268Z,5.2
2017-12-29T06:15:25.276Z,5.25
2017-12-29T06:16:25.060Z,5.28
2017-12-29T06:17:25.573Z,5.25
2017-12-29T06:18:25.033Z,5.23
2017-12-29T06:19:25.040Z,5.17
2017-12-29T06:20:25.609Z,5.25
2017-12-29T06:21:25.112Z,5.2
2017-12-29T06:22:25.623Z,5.2
2017-12-29T06:23:25.361Z,5.25
2017-12-29T06:24:25.436Z,5.29
2017-12-29T06:25:25.374Z,5.29
2017-12-29T06:26:25.670Z,5.18
2017-12-29T06:27:25.457Z,5.26
2017-12-29T06:28:25.409Z,5.14
2017-12-29T06:29:25.150Z,5.23
2017-12-29T06:30:25.430Z,5.17
2017-12-29T06:31:25.438Z,5.21
2017-12-29T06:32:25.449Z,5.2
2017-12-29T06:33:25.460Z,5.17
2017-12-29T06:34:25.490Z,5.23
2017-12-29T06:35:25.205Z,5.23
2017-12-29T06:36:25.764Z,5.18
2017-12-29T06:37:25.778Z,5.25
2017-12-29T06:38:25.509Z,5.28
2017-12-29T06:39:25.244Z,5.26
2017-12-29T06:40:25.568Z,5.23
2017-12-29T06:41:25.273Z,5.21
2017-12-29T06:42:25.559Z,5.2
2017-12-29T06:43:25.841Z,5.23
2017-12-29T06:44:25.299Z,5.29
2017-12-29T06:45:25.312Z,5.25
2017-12-29T06:46:25.641Z,5.23
2017-12-29T06:47:25.613Z,5.17
2017-12-29T06:48:25.614Z,5.2
2017-12-29T06:49:25.349Z,5.28
2017-12-29T06:50:25.636Z,5.23
2017-12-29T06:51:25.695Z,5.28
2017-12-29T06:52:25.393Z,5.23
2017-12-29T06:53:25.959Z,5.29
2017-12-29T06:54:25.950Z,5.23
2017-12-29T06:55:25.409Z,5.2
2017-12-29T06:56:25.696Z,5.35
2017-12-29T06:57:25.707Z,5.25
2017-12-29T06:58:25.996Z,5.25
2017-12-29T06:59:26.080Z,5.21
2017-12-29T07:00:26.007Z,5.23
2017-12-29T07:01:25.760Z,5.26
2017-12-29T07:02:25.759Z,5.23
2017-12-29T07:03:26.047Z,5.23
2017-12-29T07:04:25.779Z,5.21
2017-12-29T07:05:26.064Z,5.2
2017-12-29T07:06:25.797Z,5.25
2017-12-29T07:07:25.811Z,5.25
2017-12-29T07:08:26.092Z,5.23
2017-12-29T07:09:25.559Z,5.18
2017-12-29T07:10:25.844Z,5.21
2017-12-29T07:11:25.851Z,5.32
2017-12-29T07:12:25.865Z,5.17
2017-12-29T07:13:26.151Z,5.21
2017-12-29T07:14:26.156Z,5.2
2017-12-29T07:15:25.891Z,5.28
2017-12-29T07:16:25.901Z,5.25
2017-12-29T07:17:25.915Z,5.23
2017-12-29T07:18:26.204Z,5.28
2017-12-29T07:19:26.217Z,5.21
2017-12-29T07:20:25.941Z,5.15
2017-12-29T07:21:25.957Z,5.3
2017-12-29T07:22:26.043Z,5.23
2017-12-29T07:23:26.250Z,5.21
2017-12-29T07:24:25.984Z,5.17
2017-12-29T07:25:25.996Z,5.25
2017-12-29T07:26:26.077Z,5.23
2017-12-29T07:27:26.015Z,5.2
2017-12-29T07:28:26.312Z,5.17
2017-12-29T07:29:26.037Z,5.23
2017-12-29T07:30:26.322Z,5.23
2017-12-29T07:31:26.333Z,5.18
2017-12-29T07:32:25.794Z,5.3
2017-12-29T07:33:25.803Z,5.2
2017-12-29T07:34:26.093Z,5.18
2017-12-29T07:35:25.822Z,5.3
2017-12-29T07:36:26.377Z,5.25
2017-12-29T07:37:26.117Z,5.17
2017-12-29T07:38:26.136Z,5.21
2017-12-29T07:39:26.141Z,5.29
2017-12-29T07:40:26.146Z,5.17
2017-12-29T07:41:26.161Z,5.18
2017-12-29T07:42:26.172Z,5.23
2017-12-29T07:43:26.191Z,5.23
2017-12-29T07:44:26.461Z,5.25
2017-12-29T07:45:26.199Z,5.2
2017-12-29T07:46:26.211Z,5.23
2017-12-29T07:47:26.230Z,5.17
2017-12-29T07:48:25.955Z,5.26
2017-12-29T07:49:26.241Z,5.2
2017-12-29T07:50:26.581Z,5.23
2017-12-29T07:51:26.536Z,5.2
2017-12-29T07:52:26.328Z,5.25
2017-12-29T07:53:26.566Z,5.23
2017-12-29T07:54:26.291Z,5.23
2017-12-29T07:55:26.303Z,5.25
2017-12-29T07:56:26.352Z,5.23
2017-12-29T07:57:26.323Z,5.2
2017-12-29T07:58:26.061Z,5.23
2017-12-29T07:59:26.626Z,5.29
2017-12-29T08:00:26.351Z,5.25
2017-12-29T08:01:26.365Z,5.32
2017-12-29T08:02:26.371Z,5.32
2017-12-29T08:03:26.386Z,5.32
2017-12-29T08:04:26.394Z,5.35
2017-12-29T08:05:26.683Z,5.38
2017-12-29T08:06:26.137Z,5.3
2017-12-29T08:07:26.421Z,5.29
2017-12-29T08:08:26.440Z,5.28
2017-12-29T08:09:26.447Z,5.35
2017-12-29T08:10:26.457Z,5.35
2017-12-29T08:11:26.467Z,5.35
2017-12-29T08:12:26.203Z,5.32
2017-12-29T08:13:26.489Z,5.36
2017-12-29T08:14:26.503Z,5.35
2017-12-29T08:15:26.510Z,5.32
2017-12-29T08:16:26.521Z,5.32
2017-12-29T08:17:26.851Z,5.32
2017-12-29T08:18:26.540Z,5.33
2017-12-29T08:19:26.272Z,5.41
2017-12-29T08:20:26.613Z,5.41
2017-12-29T08:21:26.576Z,5.46
2017-12-29T08:22:26.581Z,5.5
2017-12-29T08:23:26.590Z,5.47
2017-12-29T08:24:26.605Z,5.53
2017-12-29T08:25:26.337Z,5.48
2017-12-29T08:26:26.622Z,5.62
2017-12-29T08:27:26.913Z,5.57
2017-12-29T08:28:26.640Z,5.57
2017-12-29T08:29:27.045Z,5.65
2017-12-29T08:30:26.388Z,5.65
2017-12-29T08:31:26.689Z,5.66
2017-12-29T08:32:26.959Z,5.65
2017-12-29T08:33:27.022Z,5.71
2017-12-29T08:34:27.004Z,5.72
2017-12-29T08:35:26.986Z,5.82
2017-12-29T08:36:26.724Z,5.8
2017-12-29T08:37:26.735Z,5.79
2017-12-29T08:38:26.832Z,5.84
2017-12-29T08:39:26.486Z,5.82
2017-12-29T08:40:26.769Z,5.9
2017-12-29T08:41:26.788Z,5.86
2017-12-29T08:42:26.786Z,5.87
2017-12-29T08:43:26.797Z,5.94
2017-12-29T08:44:26.810Z,5.89
2017-12-29T08:45:26.820Z,5.83
2017-12-29T08:46:27.119Z,5.84
2017-12-29T08:47:26.568Z,5.91
2017-12-29T08:48:26.848Z,5.94
2017-12-29T08:49:26.864Z,5.99
2017-12-29T08:50:26.879Z,5.98
2017-12-29T08:51:26.895Z,6.02
2017-12-29T08:52:26.896Z,5.98
2017-12-29T08:53:26.641Z,5.97
2017-12-29T08:54:27.200Z,6.05
2017-12-29T08:55:27.208Z,6.05
2017-12-29T08:56:26.936Z,5.99
2017-12-29T08:57:26.947Z,6.07
2017-12-29T08:58:27.012Z,6.02
2017-12-29T08:59:27.246Z,5.99
2017-12-29T09:00:26.703Z,6.01
2017-12-29T09:01:27.266Z,5.97
2017-12-29T09:02:27.323Z,6.01
2017-12-29T09:03:27.285Z,6.09
2017-12-29T09:04:27.018Z,6.09
2017-12-29T09:05:27.032Z,6.07
2017-12-29T09:06:26.769Z,6.04
2017-12-29T09:07:27.327Z,6.07
2017-12-29T09:08:27.348Z,6.07
2017-12-29T09:09:27.075Z,6.08
2017-12-29T09:10:27.089Z,6.09
2017-12-29T09:11:26.820Z,6.14
2017-12-29T09:12:26.831Z,6.19
2017-12-29T09:13:27.403Z,6.11
2017-12-29T09:14:26.853Z,6.16
2017-12-29T09:15:27.139Z,6.17
2017-12-29T09:16:27.151Z,6.24
2017-12-29T09:17:27.162Z,6.26
2017-12-29T09:18:27.221Z,6.28
2017-12-29T09:19:26.910Z,6.22
2017-12-29T09:20:27.191Z,6.26
2017-12-29T09:21:27.203Z,6.22
2017-12-29T09:22:26.938Z,6.24
2017-12-29T09:23:27.566Z,6.35
2017-12-29T09:24:26.963Z,6.27
2017-12-29T09:25:27.248Z,6.33
2017-12-29T09:26:27.262Z,6.26
2017-12-29T09:27:27.657Z,6.31
2017-12-29T09:28:27.284Z,6.39
2017-12-29T09:29:27.289Z,6.33
2017-12-29T09:30:27.301Z,6.36
2017-12-29T09:31:27.037Z,6.38
2017-12-29T09:32:27.326Z,6.35
2017-12-29T09:33:27.113Z,6.41
2017-12-29T09:34:27.349Z,6.36
2017-12-29T09:35:27.355Z,6.36
2017-12-29T09:36:27.667Z,6.39
2017-12-29T09:37:27.650Z,6.33
2017-12-29T09:38:27.397Z,6.35
2017-12-29T09:39:27.430Z,6.38
2017-12-29T09:40:27.724Z,6.42
2017-12-29T09:41:27.426Z,6.39
2017-12-29T09:42:27.439Z,6.33
2017-12-29T09:43:27.773Z,6.36
2017-12-29T09:44:27.458Z,6.36
2017-12-29T09:45:27.746Z,6.36
2017-12-29T09:46:27.477Z,6.36
2017-12-29T09:47:27.488Z,6.35
2017-12-29T09:48:27.829Z,6.31
2017-12-29T09:49:27.236Z,6.31
2017-12-29T09:50:27.803Z,6.36
2017-12-29T09:51:27.272Z,6.35
2017-12-29T09:52:27.550Z,6.36
2017-12-29T09:53:27.555Z,6.42
2017-12-29T09:54:27.566Z,6.41
2017-12-29T09:55:27.592Z,6.33
2017-12-29T09:56:27.861Z,6.36
2017-12-29T09:57:27.598Z,6.36
2017-12-29T09:58:27.933Z,6.41
2017-12-29T09:59:27.913Z,6.31
2017-12-29T10:00:27.362Z,6.36
2017-12-29T10:01:27.644Z,6.36
2017-12-29T10:02:27.948Z,6.31
2017-12-29T10:03:27.732Z,6.35
2017-12-29T10:04:27.971Z,6.31
2017-12-29T10:05:27.686Z,6.33
2017-12-29T10:06:27.979Z,6.35
2017-12-29T10:07:27.987Z,6.31
2017-12-29T10:08:28.022Z,6.38
2017-12-29T10:09:27.457Z,6.35
2017-12-29T10:10:27.744Z,6.33
2017-12-29T10:11:27.755Z,6.36
2017-12-29T10:12:27.766Z,6.35
2017-12-29T10:13:27.779Z,6.39
2017-12-29T10:14:27.532Z,6.39
2017-12-29T10:15:27.872Z,6.33
2017-12-29T10:16:27.883Z,6.33
2017-12-29T10:17:27.820Z,6.33
2017-12-29T10:18:27.836Z,6.36
2017-12-29T10:19:27.846Z,6.36
2017-12-29T10:20:27.854Z,6.35
2017-12-29T10:21:27.594Z,6.35
2017-12-29T10:22:28.156Z,6.35
2017-12-29T10:23:27.893Z,6.33
2017-12-29T10:24:27.901Z,6.35
2017-12-29T10:25:27.639Z,6.36
2017-12-29T10:26:27.654Z,6.36
2017-12-29T10:27:27.944Z,6.33
2017-12-29T10:28:27.946Z,6.35
2017-12-29T10:29:27.682Z,6.33
2017-12-29T10:30:27.972Z,6.33
2017-12-29T10:31:28.253Z,6.36
2017-12-29T10:32:27.991Z,6.33
2017-12-29T10:33:28.003Z,6.36
2017-12-29T10:34:27.740Z,6.33
2017-12-29T10:35:28.356Z,6.33
2017-12-29T10:36:27.759Z,6.33
2017-12-29T10:37:27.774Z,6.35
2017-12-29T10:38:27.781Z,6.33
2017-12-29T10:39:28.076Z,6.33
2017-12-29T10:40:27.804Z,6.36
2017-12-29T10:41:27.818Z,6.36
2017-12-29T10:42:28.385Z,6.3
2017-12-29T10:43:28.390Z,6.33
2017-12-29T10:44:28.124Z,6.33
2017-12-29T10:45:28.412Z,6.42
2017-12-29T10:46:28.147Z,6.56
2017-12-29T10:47:28.165Z,6.54
2017-12-29T10:48:28.444Z,6.48
2017-12-29T10:49:28.180Z,6.54
2017-12-29T10:50:28.190Z,6.51
2017-12-29T10:51:28.214Z,6.57
2017-12-29T10:52:28.222Z,6.56
2017-12-29T10:53:28.504Z,6.56
2017-12-29T10:54:28.246Z,6.56
2017-12-29T10:55:28.526Z,6.57
2017-12-29T10:56:28.259Z,6.59
2017-12-29T10:57:28.274Z,6.6
2017-12-29T10:58:28.281Z,6.57
2017-12-29T10:59:28.570Z,6.54
2017-12-29T11:00:28.036Z,6.56
2017-12-29T11:01:28.389Z,6.56
2017-12-29T11:02:28.331Z,6.56
2017-12-29T11:03:28.063Z,6.57
2017-12-29T11:04:28.149Z,6.48
2017-12-29T11:05:28.088Z,6.59
2017-12-29T11:06:28.650Z,6.52
2017-12-29T11:07:28.658Z,6.52
2017-12-29T11:08:28.395Z,6.54
2017-12-29T11:09:28.803Z,6.52
2017-12-29T11:10:28.424Z,6.62
2017-12-29T11:11:28.161Z,6.6
2017-12-29T11:12:28.440Z,6.52
2017-12-29T11:13:28.726Z,6.62
2017-12-29T11:14:28.786Z,6.52
2017-12-29T11:15:28.203Z,6.54
2017-12-29T11:16:28.488Z,6.59
2017-12-29T11:17:28.500Z,6.57
2017-12-29T11:18:28.522Z,6.6
2017-12-29T11:19:28.258Z,6.51
2017-12-29T11:20:28.529Z,6.51
2017-12-29T11:21:28.277Z,6.56
2017-12-29T11:22:28.829Z,6.49
2017-12-29T11:23:28.287Z,6.59
2017-12-29T11:24:28.856Z,6.56
2017-12-29T11:25:28.861Z,6.63
2017-12-29T11:26:28.596Z,6.7
2017-12-29T11:27:28.606Z,6.64
2017-12-29T11:28:28.623Z,6.7
2017-12-29T11:29:28.631Z,6.6
2017-12-29T11:30:28.366Z,6.6
2017-12-29T11:31:28.380Z,6.59
2017-12-29T11:32:28.391Z,6.67
2017-12-29T11:33:28.951Z,6.6
2017-12-29T11:34:28.688Z,6.64
2017-12-29T11:35:28.700Z,6.6
2017-12-29T11:36:29.100Z,6.6
2017-12-29T11:37:29.117Z,6.62
2017-12-29T11:38:29.006Z,6.67
2017-12-29T11:39:28.744Z,6.67
2017-12-29T11:40:28.480Z,6.6
2017-12-29T11:41:29.044Z,6.66
2017-12-29T11:42:28.780Z,6.63
2017-12-29T11:43:28.512Z,6.67
2017-12-29T11:44:29.073Z,6.63
2017-12-29T11:45:28.811Z,6.7
2017-12-29T11:46:28.829Z,6.75
2017-12-29T11:47:29.117Z,6.75
2017-12-29T11:48:28.843Z,6.67
2017-12-29T11:49:28.589Z,6.77
2017-12-29T11:50:28.870Z,6.69
2017-12-29T11:51:28.608Z,6.72
2017-12-29T11:52:28.889Z,6.7
2017-12-29T11:53:28.902Z,6.69
2017-12-29T11:54:29.287Z,6.74
2017-12-29T11:55:29.201Z,6.74
2017-12-29T11:56:28.935Z,6.75
2017-12-29T11:57:29.223Z,6.69
2017-12-29T11:58:29.233Z,6.69
2017-12-29T11:59:29.300Z,6.7
2017-12-29T12:00:29.253Z,6.66
2017-12-29T12:01:28.991Z,6.69
2017-12-29T12:02:28.731Z,6.75
2017-12-29T12:03:29.296Z,6.69
2017-12-29T12:04:29.027Z,6.66
2017-12-29T12:05:29.313Z,6.66
2017-12-29T12:06:28.773Z,6.69
2017-12-29T12:07:29.063Z,6.7
2017-12-29T12:08:28.798Z,6.72
2017-12-29T12:09:29.358Z,6.72
2017-12-29T12:10:29.094Z,6.75
2017-12-29T12:11:29.110Z,6.7
2017-12-29T12:12:28.843Z,6.75
2017-12-29T12:13:29.132Z,6.75
2017-12-29T12:14:28.862Z,6.72
2017-12-29T12:15:29.160Z,6.74
2017-12-29T12:16:29.440Z,6.78
2017-12-29T12:17:29.450Z,6.82
2017-12-29T12:18:28.913Z,6.84
2017-12-29T12:19:29.199Z,6.78
2017-12-29T12:20:28.936Z,6.79
2017-12-29T12:21:29.493Z,6.72
2017-12-29T12:22:29.233Z,6.81
2017-12-29T12:23:28.972Z,6.81
2017-12-29T12:24:29.297Z,6.85
2017-12-29T12:25:29.272Z,6.82
2017-12-29T12:26:29.276Z,6.85
2017-12-29T12:27:29.569Z,6.88
2017-12-29T12:28:29.614Z,6.95
2017-12-29T12:29:29.309Z,6.92
2017-12-29T12:30:29.601Z,6.93
2017-12-29T12:31:29.330Z,6.93
2017-12-29T12:32:29.624Z,6.92
2017-12-29T12:33:29.356Z,6.92
2017-12-29T12:34:29.368Z,7.02
2017-12-29T12:35:29.110Z,7.05
2017-12-29T12:36:29.665Z,7.03
2017-12-29T12:37:29.401Z,7.11
2017-12-29T12:38:29.695Z,7
2017-12-29T12:39:29.702Z,7.11
2017-12-29T12:40:29.437Z,7.15
2017-12-29T12:41:29.450Z,7.06
2017-12-29T12:42:29.461Z,7.11
2017-12-29T12:43:29.483Z,7.1
2017-12-29T12:44:29.484Z,7.13
2017-12-29T12:45:29.772Z,7.13
2017-12-29T12:46:29.787Z,7.11
2017-12-29T12:47:29.795Z,7.18
2017-12-29T12:48:29.254Z,7.21
2017-12-29T12:49:29.542Z,7.18
2017-12-29T12:50:29.278Z,7.18
2017-12-29T12:51:29.573Z,7.18
2017-12-29T12:52:29.576Z,7.23
2017-12-29T12:53:29.592Z,7.17
2017-12-29T12:54:29.321Z,7.15
2017-12-29T12:55:29.613Z,7.15
2017-12-29T12:56:29.633Z,7.17
2017-12-29T12:57:29.635Z,7.15
2017-12-29T12:58:29.645Z,7.17
2017-12-29T12:59:29.942Z,7.18
2017-12-29T13:00:29.944Z,7.2
2017-12-29T13:01:29.679Z,7.11
2017-12-29T13:02:29.969Z,7.14
2017-12-29T13:03:29.703Z,7.17
2017-12-29T13:04:29.986Z,7.17
2017-12-29T13:05:29.724Z,7.23
2017-12-29T13:06:29.808Z,7.24
2017-12-29T13:07:29.475Z,7.18
2017-12-29T13:08:29.759Z,7.32
2017-12-29T13:09:29.496Z,7.35
2017-12-29T13:10:29.781Z,7.32
2017-12-29T13:11:30.071Z,7.36
2017-12-29T13:12:29.807Z,7.33
2017-12-29T13:13:29.546Z,7.35
2017-12-29T13:14:29.555Z,7.4
2017-12-29T13:15:30.120Z,7.33
2017-12-29T13:16:29.854Z,7.39
2017-12-29T13:17:29.963Z,7.39
2017-12-29T13:18:29.877Z,7.36
2017-12-29T13:19:29.887Z,7.28
2017-12-29T13:20:29.912Z,7.36
2017-12-29T13:21:30.189Z,7.38
2017-12-29T13:22:30.249Z,7.33